This is the latest recevied weather packets stored in our database for station/object W5HKR. If no packets are shown the sender has not sent any weather packets the latest 10 day(s).
| Time | Temp. | Humidity | Pressure | Rain* | Wind** | Luminosity | Snow |
|---|---|---|---|---|---|---|---|
| 1778020707 | 18.33° C | 91% | 990.6 hPa | 0 mm | - | - | - |
| 1778020406 | 30.56° C | 66% | 977.5 hPa | 0 mm | - | - | - |
| 1778020107 | 18.33° C | 91% | 990.6 hPa | 0 mm | - | - | - |
| 1778019806 | 18.33° C | 91% | 990.6 hPa | 0 mm | - | - | - |
| 1778019716 | 18.33° C | 91% | 990.6 hPa | 0 mm | - | - | - |
| 1778019506 | 18.33° C | 91% | 990.6 hPa | 0 mm | - | - | - |
| 1778019207 | 31.11° C | 62% | 977.4 hPa | 0 mm | - | - | - |
| 1778018636 | 30.56° C | 65% | 977.7 hPa | 0 mm | - | - | - |
| 1778018606 | 18.33° C | 91% | 990.6 hPa | 0 mm | - | - | - |
| 1778018006 | 18.33° C | 91% | 990.6 hPa | 0 mm | - | - | - |
| 1778017705 | 18.33° C | 91% | 990.6 hPa | 0 mm | - | - | - |
| 1778017558 | 18.33° C | 91% | 990.6 hPa | 0 mm | - | - | - |
| 1778017406 | 30.56° C | 64% | 977.6 hPa | 0 mm | - | - | - |
| 1778017106 | 31.67° C | 62% | 978 hPa | 0 mm | - | - | - |
| 1778016805 | 18.33° C | 91% | 990.6 hPa | 0 mm | - | - | - |
| 1778016478 | 31.11° C | 62% | 978 hPa | 0 mm | - | - | - |
| 1778016206 | 18.33° C | 91% | 990.6 hPa | 0 mm | - | - | - |
| 1778015905 | 31.11° C | 64% | 978.2 hPa | 0 mm | - | - | - |
| 1778015606 | 31.11° C | 66% | 978.2 hPa | 0 mm | - | - | - |
| 1778015396 | 30.56° C | 64% | 978.3 hPa | 0 mm | - | - | - |
| 1778015306 | 31.11° C | 64% | 978.2 hPa | 0 mm | - | - | - |
| 1778015005 | 30.56° C | 65% | 978.3 hPa | 0 mm | - | - | - |
| 1778014705 | 30.56° C | 65% | 978.7 hPa | 0 mm | - | - | - |
| 1778014405 | 30.56° C | 65% | 978.7 hPa | 0 mm | - | - | - |
| 1778014316 | 30.56° C | 66% | 978.7 hPa | 0 mm | - | - | - |
* Rain latest hour (hover to see other rain measurements)
** Current wind speed in m/s (hover to see current wind gust speed)